sensor_id;sensor_type;location;lat;lon;timestamp;P1;durP1;ratioP1;P2;durP2;ratioP2
85939;SDS011;76505;46.706;12.340;2024-03-23T00:53:55;4.95;;;1.4874999999999998;;
85939;SDS011;76505;46.706;12.340;2024-03-23T00:54:55;4.85;;;1.275;;
85939;SDS011;76505;46.706;12.340;2024-03-23T00:55:55;5.925;;;1.9249999999999998;;
85939;SDS011;76505;46.706;12.340;2024-03-23T00:56:55;8.15;;;2.3875;;
85939;SDS011;76505;46.706;12.340;2024-03-23T00:57:55;5.137499999999999;;;1.8375;;
85939;SDS011;76505;46.706;12.340;2024-03-23T00:58:56;5.45;;;1.625;;
85939;SDS011;76505;46.706;12.340;2024-03-23T00:59:55;4.5;;;1.3125;;
85939;SDS011;76505;46.706;12.340;2024-03-23T01:00:56;4.550000000000001;;;1.4625;;
85939;SDS011;76505;46.706;12.340;2024-03-23T01:01:56;5.9625;;;2.2625;;
85939;SDS011;76505;46.706;12.340;2024-03-23T01:02:55;5.775;;;1.725;;
85939;SDS011;76505;46.706;12.340;2024-03-23T01:03:56;4.975;;;1.625;;
85939;SDS011;76505;46.706;12.340;2024-03-23T01:04:56;4.8374999999999995;;;1.5875000000000001;;
85939;SDS011;76505;46.706;12.340;2024-03-23T01:05:58;6.4375;;;1.3375;;
85939;SDS011;76505;46.706;12.340;2024-03-23T01:06:56;6.2625;;;1.85;;
85939;SDS011;76505;46.706;12.340;2024-03-23T01:07:56;9.5625;;;1.7;;
85939;SDS011;76505;46.706;12.340;2024-03-23T01:08:55;5.2125;;;1.675;;
85939;SDS011;76505;46.706;12.340;2024-03-23T01:09:56;5.737500000000001;;;1.9249999999999998;;
85939;SDS011;76505;46.706;12.340;2024-03-23T01:10:56;4.4625;;;1.4625;;
85939;SDS011;76505;46.706;12.340;2024-03-23T01:11:56;8.5375;;;1.9249999999999998;;
85939;SDS011;76505;46.706;12.340;2024-03-23T01:12:55;5.475;;;1.7000000000000002;;
85939;SDS011;76505;46.706;12.340;2024-03-23T01:13:56;5.362500000000001;;;2.1625000000000005;;
85939;SDS011;76505;46.706;12.340;2024-03-23T01:14:55;5.375;;;1.8875;;
85939;SDS011;76505;46.706;12.340;2024-03-23T01:15:56;4.9750000000000005;;;1.4875;;
85939;SDS011;76505;46.706;12.340;2024-03-23T01:16:55;5.0875;;;1.625;;
85939;SDS011;76505;46.706;12.340;2024-03-23T01:17:55;5.8375;;;1.8375;;
85939;SDS011;76505;46.706;12.340;2024-03-23T01:18:55;6.375;;;1.9125;;
85939;SDS011;76505;46.706;12.340;2024-03-23T01:19:55;6.35;;;1.9625;;
85939;SDS011;76505;46.706;12.340;2024-03-23T01:20:55;5.7875;;;1.9874999999999998;;
85939;SDS011;76505;46.706;12.340;2024-03-23T01:21:56;4.9750000000000005;;;1.8125;;
85939;SDS011;76505;46.706;12.340;2024-03-23T01:22:55;7.1375;;;1.75;;
85939;SDS011;76505;46.706;12.340;2024-03-23T01:23:56;5.487500000000001;;;1.6749999999999998;;
85939;SDS011;76505;46.706;12.340;2024-03-23T01:24:56;5.737500000000001;;;1.675;;
85939;SDS011;76505;46.706;12.340;2024-03-23T01:25:56;4.8125;;;1.2374999999999998;;
85939;SDS011;76505;46.706;12.340;2024-03-23T01:26:56;4.4375;;;1.375;;
85939;SDS011;76505;46.706;12.340;2024-03-23T01:27:55;4.875;;;1.3;;
85939;SDS011;76505;46.706;12.340;2024-03-23T01:28:56;3.9375;;;1.3;;
85939;SDS011;76505;46.706;12.340;2024-03-23T01:29:55;5.375;;;1.6124999999999998;;
85939;SDS011;76505;46.706;12.340;2024-03-23T01:30:55;5.8625;;;1.4875;;
85939;SDS011;76505;46.706;12.340;2024-03-23T01:31:55;5.9125;;;1.6624999999999999;;
85939;SDS011;76505;46.706;12.340;2024-03-23T01:32:56;5.8;;;1.7875;;
85939;SDS011;76505;46.706;12.340;2024-03-23T01:33:55;5.1375;;;1.7;;
85939;SDS011;76505;46.706;12.340;2024-03-23T01:34:56;4.112500000000001;;;1.7375;;
85939;SDS011;76505;46.706;12.340;2024-03-23T01:35:55;4.7625;;;1.675;;
85939;SDS011;76505;46.706;12.340;2024-03-23T01:36:56;4.6875;;;1.5750000000000002;;
85939;SDS011;76505;46.706;12.340;2024-03-23T01:37:56;5.1375;;;1.6125;;
85939;SDS011;76505;46.706;12.340;2024-03-23T01:38:56;6.1;;;1.7;;
85939;SDS011;76505;46.706;12.340;2024-03-23T01:39:56;6.325;;;1.35;;
85939;SDS011;76505;46.706;12.340;2024-03-23T01:40:57;4.7;;;1.375;;
85939;SDS011;76505;46.706;12.340;2024-03-23T01:41:56;4.8875;;;1.925;;
85939;SDS011;76505;46.706;12.340;2024-03-23T01:42:56;6.137499999999999;;;1.5;;
85939;SDS011;76505;46.706;12.340;2024-03-23T01:43:56;4.8875;;;1.5125000000000002;;
85939;SDS011;76505;46.706;12.340;2024-03-23T01:44:55;5.325;;;1.825;;
85939;SDS011;76505;46.706;12.340;2024-03-23T01:45:56;4.875;;;1.7375;;
85939;SDS011;76505;46.706;12.340;2024-03-23T01:46:55;4.425;;;1.35;;
85939;SDS011;76505;46.706;12.340;2024-03-23T01:47:56;4.2375;;;1.4249999999999998;;
85939;SDS011;76505;46.706;12.340;2024-03-23T01:48:56;4.3125;;;1.4125;;
85939;SDS011;76505;46.706;12.340;2024-03-23T01:49:55;5.112500000000001;;;1.5125;;
85939;SDS011;76505;46.706;12.340;2024-03-23T01:50:56;6.6625;;;1.6625;;
85939;SDS011;76505;46.706;12.340;2024-03-23T01:51:56;4.275;;;1.3625;;
85939;SDS011;76505;46.706;12.340;2024-03-23T01:52:56;5.1125;;;1.475;;
85939;SDS011;76505;46.706;12.340;2024-03-23T01:53:56;4.324999999999999;;;1.3375000000000001;;
85939;SDS011;76505;46.706;12.340;2024-03-23T01:54:56;5.4750000000000005;;;1.5750000000000002;;
85939;SDS011;76505;46.706;12.340;2024-03-23T01:55:57;4.575;;;1.6875;;
85939;SDS011;76505;46.706;12.340;2024-03-23T01:56:56;6.025;;;1.775;;
85939;SDS011;76505;46.706;12.340;2024-03-23T01:57:56;6.5375000000000005;;;1.5875;;
85939;SDS011;76505;46.706;12.340;2024-03-23T01:58:55;4.65;;;1.475;;
85939;SDS011;76505;46.706;12.340;2024-03-23T01:59:56;6.225;;;1.875;;
85939;SDS011;76505;46.706;12.340;2024-03-23T02:00:57;5.3125;;;1.6875;;
85939;SDS011;76505;46.706;12.340;2024-03-23T02:01:56;5.262499999999999;;;2.0;;
85939;SDS011;76505;46.706;12.340;2024-03-23T02:02:56;5.5;;;1.6875;;
85939;SDS011;76505;46.706;12.340;2024-03-23T02:03:56;5.5375;;;1.875;;
85939;SDS011;76505;46.706;12.340;2024-03-23T02:04:55;5.824999999999999;;;1.65;;
85939;SDS011;76505;46.706;12.340;2024-03-23T02:05:56;4.675;;;1.2875;;
85939;SDS011;76505;46.706;12.340;2024-03-23T02:06:55;4.4375;;;1.5750000000000002;;
85939;SDS011;76505;46.706;12.340;2024-03-23T02:07:55;6.3;;;1.5750000000000002;;
85939;SDS011;76505;46.706;12.340;2024-03-23T02:08:56;4.1125;;;1.25;;
85939;SDS011;76505;46.706;12.340;2024-03-23T02:09:56;4.325;;;1.3875;;
85939;SDS011;76505;46.706;12.340;2024-03-23T02:10:56;4.762499999999999;;;1.625;;
85939;SDS011;76505;46.706;12.340;2024-03-23T02:11:56;5.6625;;;2.0625;;
85939;SDS011;76505;46.706;12.340;2024-03-23T02:12:56;5.1625;;;1.5;;
85939;SDS011;76505;46.706;12.340;2024-03-23T02:13:55;7.137499999999999;;;1.6;;
85939;SDS011;76505;46.706;12.340;2024-03-23T02:14:55;4.525;;;1.4375;;
85939;SDS011;76505;46.706;12.340;2024-03-23T02:15:55;4.2875;;;1.3875;;
85939;SDS011;76505;46.706;12.340;2024-03-23T02:16:56;5.5125;;;1.6375000000000002;;
85939;SDS011;76505;46.706;12.340;2024-03-23T02:17:55;4.2125;;;1.5750000000000002;;
85939;SDS011;76505;46.706;12.340;2024-03-23T02:18:56;4.9125;;;1.725;;
85939;SDS011;76505;46.706;12.340;2024-03-23T02:19:55;5.3999999999999995;;;2.15;;
85939;SDS011;76505;46.706;12.340;2024-03-23T02:20:55;5.550000000000001;;;1.225;;
85939;SDS011;76505;46.706;12.340;2024-03-23T02:21:56;6.9125;;;2.475;;
85939;SDS011;76505;46.706;12.340;2024-03-23T02:22:55;5.15;;;1.3375;;
85939;SDS011;76505;46.706;12.340;2024-03-23T02:23:55;7.025;;;2.0374999999999996;;
85939;SDS011;76505;46.706;12.340;2024-03-23T02:24:55;7.1;;;1.6624999999999999;;
85939;SDS011;76505;46.706;12.340;2024-03-23T02:25:55;4.725;;;1.4125;;
85939;SDS011;76505;46.706;12.340;2024-03-23T02:26:55;4.762499999999999;;;1.3875;;
85939;SDS011;76505;46.706;12.340;2024-03-23T02:27:55;4.65;;;1.4749999999999999;;
85939;SDS011;76505;46.706;12.340;2024-03-23T02:28:55;5.325;;;1.325;;
85939;SDS011;76505;46.706;12.340;2024-03-23T02:29:55;4.625;;;1.2999999999999998;;
85939;SDS011;76505;46.706;12.340;2024-03-23T02:30:55;4.1625;;;1.2625;;
85939;SDS011;76505;46.706;12.340;2024-03-23T02:31:55;4.825;;;1.5375;;
85939;SDS011;76505;46.706;12.340;2024-03-23T02:32:55;4.8;;;1.7374999999999998;;
85939;SDS011;76505;46.706;12.340;2024-03-23T02:33:55;5.1;;;1.6;;
85939;SDS011;76505;46.706;12.340;2024-03-23T02:34:55;5.1125;;;1.7;;
85939;SDS011;76505;46.706;12.340;2024-03-23T02:35:56;5.825;;;1.8624999999999998;;
85939;SDS011;76505;46.706;12.340;2024-03-23T02:36:56;5.3125;;;1.65;;
85939;SDS011;76505;46.706;12.340;2024-03-23T02:37:57;4.6625;;;1.7625000000000002;;
85939;SDS011;76505;46.706;12.340;2024-03-23T02:38:55;5.737499999999999;;;1.5375;;
85939;SDS011;76505;46.706;12.340;2024-03-23T02:39:55;7.25;;;2.2;;
85939;SDS011;76505;46.706;12.340;2024-03-23T02:41:00;7.0375;;;2.475;;
85939;SDS011;76505;46.706;12.340;2024-03-23T02:41:56;6.7875;;;2.2625;;
85939;SDS011;76505;46.706;12.340;2024-03-23T02:42:55;5.262499999999999;;;1.7125;;
85939;SDS011;76505;46.706;12.340;2024-03-23T02:43:56;7.2125;;;1.775;;
85939;SDS011;76505;46.706;12.340;2024-03-23T02:44:55;8.65;;;2.3;;
85939;SDS011;76505;46.706;12.340;2024-03-23T02:45:56;5.75;;;2.0125;;
85939;SDS011;76505;46.706;12.340;2024-03-23T02:46:55;5.925;;;1.9875;;
85939;SDS011;76505;46.706;12.340;2024-03-23T02:47:56;5.137500000000001;;;1.9124999999999999;;
85939;SDS011;76505;46.706;12.340;2024-03-23T02:48:57;7.0249999999999995;;;2.6500000000000004;;
85939;SDS011;76505;46.706;12.340;2024-03-23T02:49:55;5.6125;;;1.725;;
85939;SDS011;76505;46.706;12.340;2024-03-23T02:50:56;7.9624999999999995;;;2.1375;;
85939;SDS011;76505;46.706;12.340;2024-03-23T02:51:55;7.0875;;;2.3249999999999997;;
85939;SDS011;76505;46.706;12.340;2024-03-23T02:52:56;6.0625;;;2.4625000000000004;;
85939;SDS011;76505;46.706;12.340;2024-03-23T02:53:55;6.987500000000001;;;2.3375;;
85939;SDS011;76505;46.706;12.340;2024-03-23T02:54:56;5.475;;;1.9375;;
85939;SDS011;76505;46.706;12.340;2024-03-23T02:55:57;6.2;;;1.9875;;
85939;SDS011;76505;46.706;12.340;2024-03-23T02:56:55;6.5375;;;1.775;;
85939;SDS011;76505;46.706;12.340;2024-03-23T02:57:56;6.8625;;;1.7625000000000002;;
85939;SDS011;76505;46.706;12.340;2024-03-23T02:58:56;5.475;;;1.6624999999999999;;
85939;SDS011;76505;46.706;12.340;2024-03-23T02:59:56;7.6125;;;2.25;;
85939;SDS011;76505;46.706;12.340;2024-03-23T03:00:56;5.1625;;;1.5125000000000002;;
85939;SDS011;76505;46.706;12.340;2024-03-23T03:01:56;6.8375;;;2.2;;
85939;SDS011;76505;46.706;12.340;2024-03-23T03:02:56;5.800000000000001;;;2.175;;
85939;SDS011;76505;46.706;12.340;2024-03-23T03:03:55;6.625;;;2.3625;;
85939;SDS011;76505;46.706;12.340;2024-03-23T03:04:55;5.55;;;1.95;;
85939;SDS011;76505;46.706;12.340;2024-03-23T03:05:56;6.9375;;;1.85;;
85939;SDS011;76505;46.706;12.340;2024-03-23T03:06:56;7.6;;;2.325;;
85939;SDS011;76505;46.706;12.340;2024-03-23T03:07:56;5.9875;;;1.9125;;
85939;SDS011;76505;46.706;12.340;2024-03-23T03:08:56;6.987500000000001;;;2.1375;;
85939;SDS011;76505;46.706;12.340;2024-03-23T03:09:55;5.8125;;;1.9875;;
85939;SDS011;76505;46.706;12.340;2024-03-23T03:10:55;6.025;;;1.7625;;
85939;SDS011;76505;46.706;12.340;2024-03-23T03:11:55;5.375;;;1.8624999999999998;;
85939;SDS011;76505;46.706;12.340;2024-03-23T03:12:55;6.625;;;1.9125;;
85939;SDS011;76505;46.706;12.340;2024-03-23T03:13:56;6.3;;;1.9;;
85939;SDS011;76505;46.706;12.340;2024-03-23T03:14:55;6.525;;;1.4249999999999998;;
85939;SDS011;76505;46.706;12.340;2024-03-23T03:15:55;4.449999999999999;;;1.6;;
85939;SDS011;76505;46.706;12.340;2024-03-23T03:16:56;6.800000000000001;;;1.825;;
85939;SDS011;76505;46.706;12.340;2024-03-23T03:17:55;5.875;;;1.675;;
85939;SDS011;76505;46.706;12.340;2024-03-23T03:18:56;5.05;;;1.5375;;
85939;SDS011;76505;46.706;12.340;2024-03-23T03:19:56;5.3875;;;1.6125;;
85939;SDS011;76505;46.706;12.340;2024-03-23T03:20:56;5.7375;;;1.675;;
85939;SDS011;76505;46.706;12.340;2024-03-23T03:21:56;5.95;;;2.1500000000000004;;
85939;SDS011;76505;46.706;12.340;2024-03-23T03:22:56;6.125;;;2.1;;
85939;SDS011;76505;46.706;12.340;2024-03-23T03:23:56;5.7875;;;1.6875;;
85939;SDS011;76505;46.706;12.340;2024-03-23T03:24:55;5.174999999999999;;;1.7625;;
85939;SDS011;76505;46.706;12.340;2024-03-23T03:25:55;7.9125;;;2.0625;;
85939;SDS011;76505;46.706;12.340;2024-03-23T03:26:56;6.4625;;;2.0;;
85939;SDS011;76505;46.706;12.340;2024-03-23T03:27:56;4.987500000000001;;;1.725;;
85939;SDS011;76505;46.706;12.340;2024-03-23T03:28:56;5.2125;;;1.7;;
85939;SDS011;76505;46.706;12.340;2024-03-23T03:29:55;4.6875;;;1.875;;
85939;SDS011;76505;46.706;12.340;2024-03-23T03:30:56;5.725;;;1.7875;;
85939;SDS011;76505;46.706;12.340;2024-03-23T03:31:56;5.275;;;1.5374999999999999;;
85939;SDS011;76505;46.706;12.340;2024-03-23T03:32:56;4.9;;;1.6124999999999998;;
85939;SDS011;76505;46.706;12.340;2024-03-23T03:33:56;6.199999999999999;;;1.8375;;
85939;SDS011;76505;46.706;12.340;2024-03-23T03:34:56;4.8875;;;1.7625000000000002;;
85939;SDS011;76505;46.706;12.340;2024-03-23T03:35:56;5.7875;;;1.9875;;
85939;SDS011;76505;46.706;12.340;2024-03-23T03:36:56;5.525;;;1.7125;;
85939;SDS011;76505;46.706;12.340;2024-03-23T03:37:56;4.575;;;1.65;;
85939;SDS011;76505;46.706;12.340;2024-03-23T03:38:56;5.1;;;1.525;;
85939;SDS011;76505;46.706;12.340;2024-03-23T03:39:56;6.4375;;;2.0;;
85939;SDS011;76505;46.706;12.340;2024-03-23T03:40:56;5.0;;;1.475;;
85939;SDS011;76505;46.706;12.340;2024-03-23T03:41:56;5.0875;;;1.85;;
85939;SDS011;76505;46.706;12.340;2024-03-23T03:42:56;5.15;;;1.6375;;
85939;SDS011;76505;46.706;12.340;2024-03-23T03:43:56;5.4125;;;1.6875;;
85939;SDS011;76505;46.706;12.340;2024-03-23T03:44:56;6.525;;;1.5375;;
85939;SDS011;76505;46.706;12.340;2024-03-23T03:45:56;6.625;;;1.9;;
85939;SDS011;76505;46.706;12.340;2024-03-23T03:46:56;5.012499999999999;;;1.8625;;
85939;SDS011;76505;46.706;12.340;2024-03-23T03:47:55;7.550000000000001;;;2.0;;
85939;SDS011;76505;46.706;12.340;2024-03-23T03:48:56;5.3875;;;1.7875;;
85939;SDS011;76505;46.706;12.340;2024-03-23T03:49:56;7.425;;;1.7375;;
85939;SDS011;76505;46.706;12.340;2024-03-23T03:50:56;5.237500000000001;;;1.5999999999999999;;
85939;SDS011;76505;46.706;12.340;2024-03-23T03:51:56;5.3375;;;1.6375;;
85939;SDS011;76505;46.706;12.340;2024-03-23T03:52:56;4.4875;;;1.3875;;
85939;SDS011;76505;46.706;12.340;2024-03-23T03:53:56;5.925;;;1.8;;
85939;SDS011;76505;46.706;12.340;2024-03-23T03:55:01;6.487500000000001;;;1.4874999999999998;;
85939;SDS011;76505;46.706;12.340;2024-03-23T03:55:55;5.199999999999999;;;1.8;;
85939;SDS011;76505;46.706;12.340;2024-03-23T03:56:56;5.5375;;;1.95;;
85939;SDS011;76505;46.706;12.340;2024-03-23T03:57:56;6.1875;;;2.0625;;
85939;SDS011;76505;46.706;12.340;2024-03-23T03:58:56;5.1625;;;1.6749999999999998;;
85939;SDS011;76505;46.706;12.340;2024-03-23T03:59:56;6.4625;;;1.875;;
85939;SDS011;76505;46.706;12.340;2024-03-23T04:00:56;5.825;;;1.9875;;
85939;SDS011;76505;46.706;12.340;2024-03-23T04:01:56;4.9375;;;1.6125;;
85939;SDS011;76505;46.706;12.340;2024-03-23T04:02:56;7.2875;;;1.8250000000000002;;
85939;SDS011;76505;46.706;12.340;2024-03-23T04:03:56;7.725;;;1.9625000000000001;;
85939;SDS011;76505;46.706;12.340;2024-03-23T04:04:56;5.5375;;;1.85;;
85939;SDS011;76505;46.706;12.340;2024-03-23T04:05:56;5.675;;;1.675;;
85939;SDS011;76505;46.706;12.340;2024-03-23T04:06:58;6.0625;;;2.1;;
85939;SDS011;76505;46.706;12.340;2024-03-23T04:07:56;5.8875;;;1.8250000000000002;;
85939;SDS011;76505;46.706;12.340;2024-03-23T04:08:56;5.1375;;;1.6124999999999998;;
85939;SDS011;76505;46.706;12.340;2024-03-23T04:09:56;5.525;;;1.9000000000000001;;
85939;SDS011;76505;46.706;12.340;2024-03-23T04:10:56;5.5875;;;2.0;;
85939;SDS011;76505;46.706;12.340;2024-03-23T04:11:55;5.675;;;1.6875;;
85939;SDS011;76505;46.706;12.340;2024-03-23T04:12:56;4.8875;;;1.6749999999999998;;
85939;SDS011;76505;46.706;12.340;2024-03-23T04:13:55;6.987500000000001;;;1.975;;
85939;SDS011;76505;46.706;12.340;2024-03-23T04:14:55;5.449999999999999;;;1.7;;
85939;SDS011;76505;46.706;12.340;2024-03-23T04:15:56;5.775;;;1.8;;
85939;SDS011;76505;46.706;12.340;2024-03-23T04:16:56;5.762499999999999;;;1.65;;
85939;SDS011;76505;46.706;12.340;2024-03-23T04:17:56;5.8374999999999995;;;1.7;;
85939;SDS011;76505;46.706;12.340;2024-03-23T04:18:55;6.387499999999999;;;1.5875;;
85939;SDS011;76505;46.706;12.340;2024-03-23T04:19:56;4.85;;;1.4249999999999998;;
85939;SDS011;76505;46.706;12.340;2024-03-23T04:20:55;5.6375;;;2.0375;;
85939;SDS011;76505;46.706;12.340;2024-03-23T04:21:56;5.7875;;;1.7625;;
85939;SDS011;76505;46.706;12.340;2024-03-23T04:22:56;5.637499999999999;;;1.95;;
85939;SDS011;76505;46.706;12.340;2024-03-23T04:23:55;5.574999999999999;;;1.775;;
85939;SDS011;76505;46.706;12.340;2024-03-23T04:25:00;4.887499999999999;;;1.65;;
85939;SDS011;76505;46.706;12.340;2024-03-23T04:25:56;4.987499999999999;;;1.6;;
85939;SDS011;76505;46.706;12.340;2024-03-23T04:26:55;5.475;;;1.875;;
85939;SDS011;76505;46.706;12.340;2024-03-23T04:27:56;5.4;;;1.925;;
85939;SDS011;76505;46.706;12.340;2024-03-23T04:28:55;5.6875;;;1.875;;
85939;SDS011;76505;46.706;12.340;2024-03-23T04:29:56;6.35;;;1.9375;;
85939;SDS011;76505;46.706;12.340;2024-03-23T04:30:56;4.95;;;1.625;;
85939;SDS011;76505;46.706;12.340;2024-03-23T04:31:56;7.25;;;2.1875;;
85939;SDS011;76505;46.706;12.340;2024-03-23T04:32:57;6.2125;;;2.025;;
85939;SDS011;76505;46.706;12.340;2024-03-23T04:33:56;5.0249999999999995;;;1.6125;;
85939;SDS011;76505;46.706;12.340;2024-03-23T04:34:56;5.75;;;1.9749999999999999;;
85939;SDS011;76505;46.706;12.340;2024-03-23T04:35:55;5.975;;;1.9;;
85939;SDS011;76505;46.706;12.340;2024-03-23T04:37:01;6.8;;;2.3625;;
85939;SDS011;76505;46.706;12.340;2024-03-23T04:37:56;5.8;;;2.4124999999999996;;
85939;SDS011;76505;46.706;12.340;2024-03-23T04:38:56;7.137499999999999;;;1.875;;
85939;SDS011;76505;46.706;12.340;2024-03-23T04:39:55;5.449999999999999;;;1.6375;;
85939;SDS011;76505;46.706;12.340;2024-03-23T04:40:56;6.25;;;1.9249999999999998;;
85939;SDS011;76505;46.706;12.340;2024-03-23T04:41:56;6.0875;;;1.8125;;
85939;SDS011;76505;46.706;12.340;2024-03-23T04:42:55;4.675;;;1.6375000000000002;;
85939;SDS011;76505;46.706;12.340;2024-03-23T04:43:56;5.7125;;;1.8375000000000001;;
85939;SDS011;76505;46.706;12.340;2024-03-23T04:44:56;5.45;;;1.7;;
85939;SDS011;76505;46.706;12.340;2024-03-23T04:45:55;6.325;;;1.8625;;
85939;SDS011;76505;46.706;12.340;2024-03-23T04:46:55;4.8125;;;1.7875;;
85939;SDS011;76505;46.706;12.340;2024-03-23T04:47:55;5.325;;;2.1125;;
85939;SDS011;76505;46.706;12.340;2024-03-23T04:48:57;6.8625;;;1.6124999999999998;;
85939;SDS011;76505;46.706;12.340;2024-03-23T04:49:55;6.1375;;;2.1375;;
85939;SDS011;76505;46.706;12.340;2024-03-23T04:50:57;5.4125;;;1.825;;
85939;SDS011;76505;46.706;12.340;2024-03-23T04:51:55;7.737500000000001;;;1.9875;;
85939;SDS011;76505;46.706;12.340;2024-03-23T04:52:55;5.9;;;1.5875;;
85939;SDS011;76505;46.706;12.340;2024-03-23T04:53:55;5.1;;;1.6625;;
85939;SDS011;76505;46.706;12.340;2024-03-23T04:54:55;5.7625;;;1.8875;;
85939;SDS011;76505;46.706;12.340;2024-03-23T04:55:56;6.3125;;;1.7;;
85939;SDS011;76505;46.706;12.340;2024-03-23T04:56:56;5.525;;;1.9874999999999998;;
85939;SDS011;76505;46.706;12.340;2024-03-23T04:57:56;6.05;;;1.95;;
85939;SDS011;76505;46.706;12.340;2024-03-23T04:59:01;6.0875;;;1.875;;
85939;SDS011;76505;46.706;12.340;2024-03-23T04:59:56;6.1875;;;1.95;;
85939;SDS011;76505;46.706;12.340;2024-03-23T05:00:56;6.137499999999999;;;1.875;;
85939;SDS011;76505;46.706;12.340;2024-03-23T05:01:55;7.4125;;;2.4625000000000004;;
85939;SDS011;76505;46.706;12.340;2024-03-23T05:02:55;6.725;;;2.575;;
85939;SDS011;76505;46.706;12.340;2024-03-23T05:03:55;5.9375;;;1.9375;;
85939;SDS011;76505;46.706;12.340;2024-03-23T05:04:56;4.4125;;;1.3625;;
85939;SDS011;76505;46.706;12.340;2024-03-23T05:05:56;6.65;;;1.5125000000000002;;
85939;SDS011;76505;46.706;12.340;2024-03-23T05:06:56;6.475;;;1.65;;
85939;SDS011;76505;46.706;12.340;2024-03-23T05:07:56;5.574999999999999;;;1.7374999999999998;;
85939;SDS011;76505;46.706;12.340;2024-03-23T05:08:56;6.7125;;;2.5625;;
85939;SDS011;76505;46.706;12.340;2024-03-23T05:09:55;13.0875;;;4.075;;
85939;SDS011;76505;46.706;12.340;2024-03-23T05:10:56;14.325;;;6.275;;
85939;SDS011;76505;46.706;12.340;2024-03-23T05:11:56;17.1;;;6.6625;;
85939;SDS011;76505;46.706;12.340;2024-03-23T05:12:56;16.575;;;6.525;;
85939;SDS011;76505;46.706;12.340;2024-03-23T05:13:55;12.175;;;5.574999999999999;;
85939;SDS011;76505;46.706;12.340;2024-03-23T05:14:55;13.4375;;;5.3875;;
85939;SDS011;76505;46.706;12.340;2024-03-23T05:15:56;13.0;;;5.3375;;
85939;SDS011;76505;46.706;12.340;2024-03-23T05:16:56;12.3125;;;5.425;;
85939;SDS011;76505;46.706;12.340;2024-03-23T05:17:55;11.0625;;;6.35;;
85939;SDS011;76505;46.706;12.340;2024-03-23T05:18:55;11.0625;;;4.9625;;
85939;SDS011;76505;46.706;12.340;2024-03-23T05:19:55;10.549999999999999;;;5.362500000000001;;
85939;SDS011;76505;46.706;12.340;2024-03-23T05:20:56;9.75;;;4.6625;;
85939;SDS011;76505;46.706;12.340;2024-03-23T05:21:55;9.075;;;4.3875;;
85939;SDS011;76505;46.706;12.340;2024-03-23T05:22:56;9.5625;;;4.4625;;
85939;SDS011;76505;46.706;12.340;2024-03-23T05:23:56;9.6125;;;4.1;;
85939;SDS011;76505;46.706;12.340;2024-03-23T05:24:57;7.6875;;;3.7750000000000004;;
85939;SDS011;76505;46.706;12.340;2024-03-23T05:25:55;6.875;;;2.7;;
85939;SDS011;76505;46.706;12.340;2024-03-23T05:26:59;6.6499999999999995;;;2.825;;
85939;SDS011;76505;46.706;12.340;2024-03-23T05:27:55;6.025;;;2.0;;
85939;SDS011;76505;46.706;12.340;2024-03-23T05:28:56;6.75;;;2.6500000000000004;;
85939;SDS011;76505;46.706;12.340;2024-03-23T05:29:56;5.95;;;2.1750000000000003;;
85939;SDS011;76505;46.706;12.340;2024-03-23T05:30:56;6.2625;;;2.575;;
85939;SDS011;76505;46.706;12.340;2024-03-23T05:31:57;8.0875;;;2.675;;
85939;SDS011;76505;46.706;12.340;2024-03-23T05:32:56;7.237500000000001;;;2.525;;
85939;SDS011;76505;46.706;12.340;2024-03-23T05:33:56;12.45;;;3.5374999999999996;;
85939;SDS011;76505;46.706;12.340;2024-03-23T05:34:57;8.925;;;2.9875;;
85939;SDS011;76505;46.706;12.340;2024-03-23T05:35:56;9.274999999999999;;;2.6;;
85939;SDS011;76505;46.706;12.340;2024-03-23T05:36:56;6.0625;;;2.4625;;
85939;SDS011;76505;46.706;12.340;2024-03-23T05:37:56;7.1375;;;2.55;;
85939;SDS011;76505;46.706;12.340;2024-03-23T05:38:55;7.225;;;2.6750000000000003;;
85939;SDS011;76505;46.706;12.340;2024-03-23T05:39:56;8.3375;;;3.1875;;
85939;SDS011;76505;46.706;12.340;2024-03-23T05:40:56;7.550000000000001;;;2.875;;
85939;SDS011;76505;46.706;12.340;2024-03-23T05:41:55;11.5625;;;3.0374999999999996;;
85939;SDS011;76505;46.706;12.340;2024-03-23T05:42:56;10.25;;;3.1625;;
85939;SDS011;76505;46.706;12.340;2024-03-23T05:43:56;8.475;;;2.8;;
85939;SDS011;76505;46.706;12.340;2024-03-23T05:44:55;7.75;;;2.5125;;
85939;SDS011;76505;46.706;12.340;2024-03-23T05:45:56;6.824999999999999;;;3.0625;;
85939;SDS011;76505;46.706;12.340;2024-03-23T05:46:56;8.1;;;3.0;;
85939;SDS011;76505;46.706;12.340;2024-03-23T05:47:57;8.1375;;;3.0999999999999996;;
85939;SDS011;76505;46.706;12.340;2024-03-23T05:48:56;9.6375;;;3.3;;
85939;SDS011;76505;46.706;12.340;2024-03-23T05:49:56;7.8625;;;3.2750000000000004;;
85939;SDS011;76505;46.706;12.340;2024-03-23T05:50:56;11.675;;;4.4625;;
85939;SDS011;76505;46.706;12.340;2024-03-23T05:51:56;11.6125;;;4.575;;
85939;SDS011;76505;46.706;12.340;2024-03-23T05:52:56;12.025;;;5.362500000000001;;
85939;SDS011;76505;46.706;12.340;2024-03-23T05:53:56;14.45;;;4.75;;
85939;SDS011;76505;46.706;12.340;2024-03-23T05:54:55;13.7625;;;4.65;;
85939;SDS011;76505;46.706;12.340;2024-03-23T05:56:00;13.9125;;;5.125;;
85939;SDS011;76505;46.706;12.340;2024-03-23T05:56:56;11.175;;;4.6625;;
85939;SDS011;76505;46.706;12.340;2024-03-23T05:57:55;15.05;;;4.7875;;
85939;SDS011;76505;46.706;12.340;2024-03-23T05:58:55;12.7625;;;6.1125;;
85939;SDS011;76505;46.706;12.340;2024-03-23T05:59:56;18.65;;;5.9375;;
85939;SDS011;76505;46.706;12.340;2024-03-23T06:00:57;15.15;;;6.625;;
85939;SDS011;76505;46.706;12.340;2024-03-23T06:01:56;13.75;;;6.525;;
85939;SDS011;76505;46.706;12.340;2024-03-23T06:02:55;15.212499999999999;;;6.1;;
85939;SDS011;76505;46.706;12.340;2024-03-23T06:03:56;17.337500000000002;;;7.262499999999999;;
85939;SDS011;76505;46.706;12.340;2024-03-23T06:04:55;20.987499999999997;;;6.6625;;
85939;SDS011;76505;46.706;12.340;2024-03-23T06:05:56;18.5625;;;6.275;;
85939;SDS011;76505;46.706;12.340;2024-03-23T06:06:55;13.037500000000001;;;5.6875;;
85939;SDS011;76505;46.706;12.340;2024-03-23T06:07:56;13.962499999999999;;;6.075;;
85939;SDS011;76505;46.706;12.340;2024-03-23T06:08:56;15.850000000000001;;;6.725;;
85939;SDS011;76505;46.706;12.340;2024-03-23T06:09:55;15.2;;;6.949999999999999;;
85939;SDS011;76505;46.706;12.340;2024-03-23T06:10:55;17.049999999999997;;;6.3;;
85939;SDS011;76505;46.706;12.340;2024-03-23T06:11:55;13.425;;;6.637499999999999;;